createdAt,value
2018-06-12T00:01:57.994Z,94956.45
2018-06-12T00:04:27.193Z,94959.62
2018-06-12T00:06:56.696Z,94957.77
2018-06-12T00:09:25.857Z,94954.50
2018-06-12T00:11:55.045Z,94952.72
2018-06-12T00:14:24.237Z,94956.37
2018-06-12T00:16:53.418Z,94957.52
2018-06-12T00:19:22.589Z,94954.42
2018-06-12T00:21:51.766Z,94958.91
2018-06-12T00:24:20.949Z,94959.80
2018-06-12T00:26:50.132Z,94955.73
2018-06-12T00:29:19.307Z,94962.77
2018-06-12T00:31:48.493Z,94964.84
2018-06-12T00:34:17.676Z,94968.44
2018-06-12T00:36:46.882Z,94962.84
2018-06-12T00:39:16.058Z,94967.67
2018-06-12T00:41:45.216Z,94969.91
2018-06-12T00:44:14.340Z,94968.30
2018-06-12T00:46:43.510Z,94974.61
2018-06-12T00:49:12.828Z,94971.43
2018-06-12T00:51:41.817Z,94964.95
2018-06-12T00:54:10.716Z,94963.69
2018-06-12T00:56:57.034Z,94957.80
2018-06-12T00:59:26.230Z,94956.36
2018-06-12T01:01:55.417Z,94954.80
2018-06-12T01:04:24.597Z,94952.67
2018-06-12T01:06:53.785Z,94959.57
2018-06-12T01:09:22.957Z,94958.44
2018-06-12T01:11:52.137Z,94956.36
2018-06-12T01:14:21.397Z,94947.25
2018-06-12T01:16:50.599Z,94935.77
2018-06-12T01:19:19.776Z,94936.03
2018-06-12T01:21:48.962Z,94941.84
2018-06-12T01:24:18.129Z,94943.91
2018-06-12T01:26:47.330Z,94949.14
2018-06-12T01:29:17.258Z,94945.77
2018-06-12T01:31:46.437Z,94948.95
2018-06-12T01:34:15.605Z,94960.42
2018-06-12T01:36:44.781Z,94954.62
2018-06-12T01:39:13.953Z,94948.01
2018-06-12T01:41:43.185Z,94950.88
2018-06-12T01:44:12.381Z,94953.38
2018-06-12T01:46:41.557Z,94950.88
2018-06-12T01:49:10.723Z,94956.47
2018-06-12T01:51:39.898Z,94957.44
2018-06-12T01:54:09.074Z,94958.91
2018-06-12T01:56:38.217Z,94963.80
2018-06-12T01:59:07.341Z,94965.57
2018-06-12T02:01:36.483Z,94953.70
2018-06-12T02:04:05.638Z,94955.59
2018-06-12T02:06:34.802Z,94947.20
2018-06-12T02:09:04.665Z,94948.59
2018-06-12T02:11:33.805Z,94950.44
2018-06-12T02:14:02.929Z,94943.59
2018-06-12T02:16:32.073Z,94947.04
2018-06-12T02:19:01.201Z,94947.65
2018-06-12T02:21:30.550Z,94959.29
2018-06-12T02:23:59.677Z,94960.34
2018-06-12T02:26:28.801Z,94969.05
2018-06-12T02:28:57.945Z,94976.38
2018-06-12T02:31:27.069Z,94971.50
2018-06-12T02:33:56.254Z,94967.91
2018-06-12T02:36:25.394Z,94965.27
2018-06-12T02:38:54.837Z,94962.41
2018-06-12T02:41:23.965Z,94959.29
2018-06-12T02:43:53.085Z,94962.00
2018-06-12T02:46:22.223Z,94958.27
2018-06-12T02:48:51.367Z,94953.06
2018-06-12T02:51:20.486Z,94959.06
2018-06-12T02:53:49.649Z,94952.19
2018-06-12T02:56:18.810Z,94962.63
2018-06-12T02:58:47.921Z,94961.22
2018-06-12T03:01:17.102Z,94958.68
2018-06-12T03:03:46.233Z,94951.68
2018-06-12T03:06:15.370Z,94950.73
2018-06-12T03:08:44.488Z,94953.27
2018-06-12T03:11:13.405Z,94946.98
2018-06-12T03:13:42.529Z,94949.13
2018-06-12T03:16:11.669Z,94949.06
2018-06-12T03:18:40.814Z,94950.42
2018-06-12T03:21:09.962Z,94954.81
2018-06-12T03:23:39.117Z,94955.60
2018-06-12T03:26:08.241Z,94959.41
2018-06-12T03:28:37.562Z,94953.03
2018-06-12T03:31:06.698Z,94949.11
2018-06-12T03:33:35.821Z,94947.95
2018-06-12T03:36:04.967Z,94951.84
2018-06-12T03:38:34.098Z,94951.84
2018-06-12T03:41:03.547Z,94950.13
2018-06-12T03:43:32.680Z,94952.11
2018-06-12T03:46:01.806Z,94950.95
2018-06-12T03:48:30.949Z,94956.70
2018-06-12T03:51:00.078Z,94953.46
2018-06-12T03:53:29.201Z,94961.57
2018-06-12T03:55:58.344Z,94958.45
2018-06-12T03:58:27.476Z,94955.68
2018-06-12T04:00:56.633Z,94957.17
2018-06-12T04:03:25.769Z,94956.72
2018-06-12T04:05:55.221Z,94958.41
2018-06-12T04:08:24.432Z,94955.45
2018-06-12T04:10:53.557Z,94961.45
2018-06-12T04:13:22.708Z,94957.60
2018-06-12T04:15:51.841Z,94958.47
2018-06-12T04:18:20.990Z,94958.72
2018-06-12T04:20:50.129Z,94958.88
2018-06-12T04:23:19.261Z,94960.95
2018-06-12T04:25:48.450Z,94966.50
2018-06-12T04:28:17.641Z,94964.83
2018-06-12T04:30:46.822Z,94961.98
2018-06-12T04:33:15.995Z,94960.31
2018-06-12T04:35:45.183Z,94963.55
2018-06-12T04:38:14.348Z,94960.78
2018-06-12T04:40:43.608Z,94971.79
2018-06-12T04:43:12.776Z,94965.02
2018-06-12T04:45:41.949Z,94971.06
2018-06-12T04:48:11.201Z,94980.47
2018-06-12T04:50:40.389Z,94983.64
2018-06-12T04:53:09.573Z,94980.91
2018-06-12T04:55:38.750Z,94985.84
2018-06-12T04:58:07.688Z,94989.92
2018-06-12T05:00:36.882Z,94981.52
2018-06-12T05:03:06.070Z,94986.25
2018-06-12T05:05:35.283Z,94986.25
2018-06-12T05:08:04.451Z,94991.83
2018-06-12T05:10:33.671Z,94990.62
2018-06-12T05:13:02.832Z,94990.41
2018-06-12T05:15:32.150Z,94990.62
2018-06-12T05:18:01.281Z,94993.98
2018-06-12T05:20:30.418Z,94997.52
2018-06-12T05:22:59.598Z,94999.28
2018-06-12T05:25:28.763Z,94996.67
2018-06-12T05:27:57.901Z,95001.35
2018-06-12T05:30:27.042Z,94998.48
2018-06-12T05:32:56.173Z,94992.50
2018-06-12T05:35:25.620Z,94992.98
2018-06-12T05:37:54.751Z,94993.53
2018-06-12T05:40:23.889Z,94995.64
2018-06-12T05:42:53.047Z,95002.22
2018-06-12T05:45:22.185Z,95000.72
2018-06-12T05:47:51.325Z,95006.00
2018-06-12T05:50:20.481Z,95014.85
2018-06-12T05:52:49.605Z,95024.33
2018-06-12T05:55:18.738Z,95032.86
2018-06-12T05:57:47.942Z,95026.32
2018-06-12T06:00:17.114Z,95030.09
2018-06-12T06:02:46.289Z,95026.11
2018-06-12T06:05:15.497Z,95023.61
2018-06-12T06:07:51.252Z,95029.52
2018-06-12T06:10:20.434Z,95028.20
2018-06-12T06:12:49.612Z,95023.95
2018-06-12T06:15:18.842Z,95013.59
2018-06-12T06:17:48.029Z,95020.40
2018-06-12T06:20:16.981Z,95021.00
2018-06-12T06:22:46.208Z,95029.50
2018-06-12T06:25:15.357Z,95030.49
2018-06-12T06:27:44.525Z,95039.64
2018-06-12T06:30:13.693Z,95035.23
2018-06-12T06:32:42.935Z,95034.30
2018-06-12T06:35:12.094Z,95035.72
2018-06-12T06:37:41.277Z,95035.17
2018-06-12T06:40:10.422Z,95033.02
2018-06-12T06:42:39.565Z,95032.70
2018-06-12T06:45:08.714Z,95034.05
2018-06-12T06:47:37.865Z,95034.80
2018-06-12T06:50:06.965Z,95032.11
2018-06-12T06:52:36.171Z,95036.36
2018-06-12T06:55:05.289Z,95036.19
2018-06-12T06:57:34.418Z,95042.48
2018-06-12T07:00:03.570Z,95053.36
2018-06-12T07:02:32.709Z,95046.91
2018-06-12T07:05:01.854Z,95048.92
2018-06-12T07:07:30.987Z,95046.86
2018-06-12T07:10:00.113Z,95043.80
2018-06-12T07:12:29.266Z,95040.94
2018-06-12T07:14:58.465Z,95040.09
2018-06-12T07:17:27.561Z,95034.98
2018-06-12T07:19:56.704Z,95035.14
2018-06-12T07:22:25.833Z,95027.14
2018-06-12T07:24:54.987Z,95020.17
2018-06-12T07:27:24.117Z,95025.13
2018-06-12T07:29:53.240Z,95025.02
2018-06-12T07:32:22.418Z,95021.12
2018-06-12T07:34:51.534Z,95024.09
2018-06-12T07:37:20.669Z,95022.92
2018-06-12T07:39:49.804Z,95024.19
2018-06-12T07:42:18.941Z,95017.87
2018-06-12T07:44:48.070Z,95018.03
2018-06-12T07:47:17.405Z,95023.63
2018-06-12T07:49:46.533Z,95021.80
2018-06-12T07:52:15.659Z,95017.46
2018-06-12T07:54:45.106Z,95019.99
2018-06-12T07:57:14.302Z,95026.21
2018-06-12T07:59:43.489Z,95027.52
2018-06-12T08:02:12.717Z,95030.08
2018-06-12T08:04:41.905Z,95028.30
2018-06-12T08:07:11.093Z,95021.13
2018-06-12T08:09:40.316Z,95020.73
2018-06-12T08:12:09.473Z,95018.35
2018-06-12T08:14:38.671Z,95018.28
2018-06-12T08:17:07.862Z,95026.90
2018-06-12T08:19:37.042Z,95022.88
2018-06-12T08:22:06.206Z,95021.25
2018-06-12T08:24:35.394Z,95020.85
2018-06-12T08:27:04.577Z,95022.34
2018-06-12T08:29:33.836Z,95020.70
2018-06-12T08:32:03.006Z,95020.77
2018-06-12T08:34:32.193Z,95017.13
2018-06-12T08:37:01.367Z,95020.98
2018-06-12T08:39:30.554Z,95019.78
2018-06-12T08:41:59.718Z,95023.52
2018-06-12T08:44:28.834Z,95018.20
2018-06-12T08:46:57.977Z,95015.66
2018-06-12T08:49:27.114Z,95016.41
2018-06-12T08:51:56.241Z,95016.33
2018-06-12T08:54:25.385Z,95011.97
2018-06-12T08:56:54.534Z,95010.38
2018-06-12T08:59:23.666Z,95008.59
2018-06-12T09:01:52.803Z,95007.41
2018-06-12T09:04:21.941Z,95005.78
2018-06-12T09:06:51.089Z,95008.23
2018-06-12T09:09:20.237Z,95001.54
2018-06-12T09:11:49.377Z,95007.88
2018-06-12T09:14:18.503Z,95003.97
2018-06-12T09:16:47.645Z,95007.17
2018-06-12T09:19:16.889Z,95001.13
2018-06-12T09:21:46.099Z,95004.96
2018-06-12T09:24:15.104Z,95004.76
2018-06-12T09:26:44.326Z,95006.24
2018-06-12T09:29:13.513Z,95006.39
2018-06-12T09:31:42.706Z,95005.95
2018-06-12T09:34:12.085Z,95004.59
2018-06-12T09:36:41.034Z,95004.31
2018-06-12T09:39:10.441Z,95006.13
2018-06-12T09:41:39.629Z,95003.63
2018-06-12T09:44:08.774Z,95005.24
2018-06-12T09:46:37.911Z,95004.20
2018-06-12T09:49:07.051Z,94997.28
2018-06-12T09:51:36.176Z,94999.90
2018-06-12T09:54:05.565Z,94996.83
2018-06-12T09:56:34.696Z,94995.58
2018-06-12T09:59:03.868Z,94999.00
2018-06-12T10:01:33.014Z,94997.61
2018-06-12T10:04:02.137Z,94998.31
2018-06-12T10:06:31.286Z,94994.81
2018-06-12T10:09:00.421Z,94991.50
2018-06-12T10:11:29.853Z,94986.05
2018-06-12T10:13:58.978Z,94986.51
2018-06-12T10:16:28.105Z,94981.74
2018-06-12T10:18:57.255Z,94977.10
2018-06-12T10:21:26.506Z,94978.80
2018-06-12T10:23:55.684Z,94975.64
2018-06-12T10:26:24.853Z,94974.27
2018-06-12T10:28:54.033Z,94971.55
2018-06-12T10:31:23.736Z,94972.08
2018-06-12T10:33:52.905Z,94973.23
2018-06-12T10:36:22.093Z,94976.52
2018-06-12T10:38:51.305Z,94972.55
2018-06-12T10:41:20.482Z,94971.66
2018-06-12T10:43:49.687Z,94973.81
2018-06-12T10:46:18.865Z,94967.89
2018-06-12T10:48:48.061Z,94966.56
2018-06-12T10:51:17.225Z,94961.13
2018-06-12T10:53:46.409Z,94962.72
2018-06-12T10:56:15.345Z,94962.94
2018-06-12T10:58:44.534Z,94956.56
2018-06-12T11:01:13.918Z,94959.98
2018-06-12T11:03:43.089Z,94951.94
2018-06-12T11:06:12.269Z,94954.86
2018-06-12T11:08:41.456Z,94947.85
2018-06-12T11:11:10.620Z,94950.13
2018-06-12T11:13:39.841Z,94945.68
2018-06-12T11:16:09.034Z,94935.60
2018-06-12T11:18:38.220Z,94939.02
2018-06-12T11:21:07.429Z,94933.89
2018-06-12T11:23:36.573Z,94928.68
2018-06-12T11:26:05.773Z,94921.89
2018-06-12T11:28:35.085Z,94922.09
2018-06-12T11:31:04.205Z,94916.55
2018-06-12T11:33:33.328Z,94915.42
2018-06-12T11:36:02.477Z,94914.49
2018-06-12T11:38:31.606Z,94911.98
2018-06-12T11:41:00.737Z,94907.98
2018-06-12T11:43:29.878Z,94894.54
2018-06-12T11:45:59.002Z,94880.30
2018-06-12T11:48:28.365Z,94880.55
2018-06-12T11:50:57.508Z,94865.59
2018-06-12T11:53:26.617Z,94857.35
2018-06-12T11:55:55.782Z,94855.17
2018-06-12T11:58:24.921Z,94835.56
2018-06-12T12:00:54.060Z,94833.57
2018-06-12T12:03:23.205Z,94815.76
2018-06-12T12:05:52.349Z,94815.73
2018-06-12T12:08:21.473Z,94822.18
2018-06-12T12:10:50.606Z,94818.81
2018-06-12T12:13:19.735Z,94815.46
2018-06-12T12:15:48.880Z,94812.50
2018-06-12T12:18:18.006Z,94811.86
2018-06-12T12:20:47.201Z,94807.67
2018-06-12T12:23:16.315Z,94811.69
2018-06-12T12:25:45.461Z,94806.27
2018-06-12T12:28:14.600Z,94798.44
2018-06-12T12:30:43.593Z,94802.59
2018-06-12T12:33:12.777Z,94806.12
2018-06-12T12:35:41.985Z,94809.41
2018-06-12T12:38:11.158Z,94805.09
2018-06-12T12:40:40.329Z,94804.67
2018-06-12T12:43:09.566Z,94812.49
2018-06-12T12:45:38.741Z,94817.48
2018-06-12T12:48:07.919Z,94821.69
2018-06-12T12:50:37.099Z,94820.50
2018-06-12T12:53:06.540Z,94827.21
2018-06-12T12:55:35.480Z,94822.75
2018-06-12T12:58:04.682Z,94827.89
2018-06-12T13:00:33.870Z,94821.58
2018-06-12T13:03:03.066Z,94821.75
2018-06-12T13:05:32.564Z,94817.26
2018-06-12T13:08:01.753Z,94810.98
2018-06-12T13:10:30.927Z,94802.22
2018-06-12T13:13:00.226Z,94803.45
2018-06-12T13:15:29.410Z,94804.81
2018-06-12T13:17:58.601Z,94797.78
2018-06-12T13:20:27.787Z,94797.49
2018-06-12T13:22:56.990Z,94796.17
2018-06-12T13:25:26.170Z,94796.17
2018-06-12T13:27:55.374Z,94790.58
2018-06-12T13:30:24.567Z,94784.81
2018-06-12T13:32:53.742Z,94788.99
2018-06-12T13:35:22.937Z,94782.58
2018-06-12T13:37:52.105Z,94791.00
2018-06-12T13:40:21.300Z,94784.83
2018-06-12T13:42:50.475Z,94782.73
2018-06-12T13:45:19.636Z,94784.60
2018-06-12T13:47:48.778Z,94783.47
2018-06-12T13:50:17.913Z,94784.03
2018-06-12T13:52:47.037Z,94790.38
2018-06-12T13:55:16.186Z,94787.77
2018-06-12T13:57:45.304Z,94786.52
2018-06-12T14:00:14.450Z,94772.14
2018-06-12T14:02:43.581Z,94764.94
2018-06-12T14:05:12.730Z,94772.81
2018-06-12T14:07:41.876Z,94767.95
2018-06-12T14:10:11.009Z,94758.47
2018-06-12T14:12:40.130Z,94756.00
2018-06-12T14:15:09.278Z,94759.42
2018-06-12T14:17:38.406Z,94753.60
2018-06-12T14:20:07.564Z,94751.23
2018-06-12T14:22:36.682Z,94752.69
2018-06-12T14:25:05.833Z,94758.11
2018-06-12T14:27:35.015Z,94755.55
2018-06-12T14:30:04.193Z,94759.83
2018-06-12T14:32:33.478Z,94756.08
2018-06-12T14:35:02.683Z,94750.80
2018-06-12T14:37:31.818Z,94754.80
2018-06-12T14:40:00.957Z,94760.16
2018-06-12T14:42:30.101Z,94767.29
2018-06-12T14:44:59.253Z,94770.94
2018-06-12T14:47:28.389Z,94775.16
2018-06-12T14:49:57.532Z,94765.27
2018-06-12T14:52:26.657Z,94763.78
2018-06-12T14:54:55.829Z,94773.40
2018-06-12T14:57:25.889Z,94776.22
2018-06-12T14:59:55.019Z,94772.48
2018-06-12T15:02:24.140Z,94776.56
2018-06-12T15:04:53.293Z,94788.08
2018-06-12T15:07:22.412Z,94800.30
2018-06-12T15:09:51.558Z,94802.90
2018-06-12T15:12:20.692Z,94805.26
2018-06-12T15:14:49.828Z,94820.39
2018-06-12T15:17:19.010Z,94816.10
2018-06-12T15:19:48.169Z,94821.53
2018-06-12T15:22:17.293Z,94829.16
2018-06-12T15:24:46.440Z,94825.03
2018-06-12T15:27:15.594Z,94824.77
2018-06-12T15:29:44.870Z,94799.57
2018-06-12T15:32:14.213Z,94802.59
2018-06-12T15:34:43.353Z,94812.13
2018-06-12T15:37:12.494Z,94812.53
2018-06-12T15:39:41.665Z,94812.98
2018-06-12T15:42:10.781Z,94827.63
2018-06-12T15:44:39.962Z,94833.64
2018-06-12T15:47:09.049Z,94824.09
2018-06-12T15:49:38.194Z,94817.80
2018-06-12T15:52:07.350Z,94823.83
2018-06-12T15:54:36.484Z,94829.73
2018-06-12T15:57:05.650Z,94822.41
2018-06-12T15:59:34.789Z,94821.36
2018-06-12T16:02:04.073Z,94833.38
2018-06-12T16:04:33.237Z,94834.05
2018-06-12T16:07:02.384Z,94834.73
2018-06-12T16:09:31.537Z,94842.18
2018-06-12T16:12:00.695Z,94846.41
2018-06-12T16:14:29.814Z,94864.54
2018-06-12T16:16:58.962Z,94874.97
2018-06-12T16:19:27.940Z,94884.61
2018-06-12T16:21:57.066Z,94871.31
2018-06-12T16:24:26.225Z,94865.69
2018-06-12T16:26:55.140Z,94868.98
2018-06-12T16:29:24.533Z,94854.63
2018-06-12T16:31:53.441Z,94854.33
2018-06-12T16:34:22.582Z,94859.77
2018-06-12T16:36:51.725Z,94860.48
2018-06-12T16:39:20.964Z,94857.64
2018-06-12T16:41:50.212Z,94850.29
2018-06-12T16:44:19.361Z,94843.55
2018-06-12T16:46:48.514Z,94843.13
2018-06-12T16:49:17.645Z,94841.56
2018-06-12T16:51:46.783Z,94830.91
2018-06-12T16:54:15.925Z,94825.69
2018-06-12T16:56:45.129Z,94827.73
2018-06-12T16:59:14.206Z,94824.88
2018-06-12T17:01:43.358Z,94826.58
2018-06-12T17:04:12.481Z,94830.45
2018-06-12T17:06:41.609Z,94824.11
2018-06-12T17:09:10.766Z,94824.66
2018-06-12T17:11:39.926Z,94830.17
2018-06-12T17:14:09.045Z,94834.37
2018-06-12T17:16:38.206Z,94834.37
2018-06-12T17:19:07.365Z,94841.46
2018-06-12T17:21:36.494Z,94841.86
2018-06-12T17:24:05.616Z,94842.23
2018-06-12T17:26:34.760Z,94851.88
2018-06-12T17:29:03.895Z,94843.03
2018-06-12T17:31:33.031Z,94841.53
2018-06-12T17:34:02.162Z,94844.45
2018-06-12T17:36:31.319Z,94847.34
2018-06-12T17:39:00.431Z,94842.73
2018-06-12T17:41:29.578Z,94849.58
2018-06-12T17:43:58.701Z,94849.17
2018-06-12T17:46:27.848Z,94845.98
2018-06-12T17:48:56.985Z,94846.13
2018-06-12T17:51:26.131Z,94842.23
2018-06-12T17:53:55.512Z,94840.03
2018-06-12T17:56:24.637Z,94843.22
2018-06-12T17:58:53.781Z,94845.12
2018-06-12T18:01:22.941Z,94845.81
2018-06-12T18:03:52.070Z,94851.00
2018-06-12T18:06:21.261Z,94847.49
2018-06-12T18:08:50.441Z,94852.90
2018-06-12T18:11:19.724Z,94849.17
2018-06-12T18:13:48.913Z,94849.17
2018-06-12T18:16:18.088Z,94846.14
2018-06-12T18:18:47.257Z,94850.45
2018-06-12T18:21:16.429Z,94843.29
2018-06-12T18:23:45.609Z,94846.29
2018-06-12T18:26:14.793Z,94844.94
2018-06-12T18:28:43.976Z,94840.25
2018-06-12T18:31:13.164Z,94848.22
2018-06-12T18:33:42.332Z,94854.73
2018-06-12T18:36:11.876Z,94851.70
2018-06-12T18:38:41.042Z,94860.87
2018-06-12T18:41:10.244Z,94866.20
2018-06-12T18:43:39.489Z,94868.66
2018-06-12T18:46:08.808Z,94870.88
2018-06-12T18:48:37.998Z,94873.73
2018-06-12T18:51:07.202Z,94874.31
2018-06-12T18:53:36.390Z,94873.73
2018-06-12T18:56:05.586Z,94880.41
2018-06-12T18:58:34.766Z,94873.83
2018-06-12T19:01:03.937Z,94879.92
2018-06-12T19:03:33.130Z,94880.88
2018-06-12T19:06:02.383Z,94881.63
2018-06-12T19:08:31.542Z,94879.47
2018-06-12T19:11:00.846Z,94881.27
2018-06-12T19:13:30.035Z,94886.74
2018-06-12T19:15:59.866Z,94880.78
2018-06-12T19:18:29.073Z,94864.94
2018-06-12T19:20:58.619Z,94858.30
2018-06-12T19:23:28.257Z,94861.33
2018-06-12T19:25:57.191Z,94855.05
2018-06-12T19:28:26.405Z,94844.89
2018-06-12T19:30:55.602Z,94848.62
2018-06-12T19:33:24.760Z,94853.95
2018-06-12T19:35:53.933Z,94854.70
2018-06-12T19:38:23.108Z,94846.97
2018-06-12T19:40:52.289Z,94840.89
2018-06-12T19:43:21.504Z,94855.66
2018-06-12T19:45:50.671Z,94850.73
2018-06-12T19:48:19.845Z,94843.80
2018-06-12T19:50:49.029Z,94857.14
2018-06-12T19:53:18.213Z,94862.47
2018-06-12T19:55:47.390Z,94866.66
2018-06-12T19:58:16.601Z,94868.42
2018-06-12T20:00:45.786Z,94875.66
2018-06-12T20:03:14.977Z,94874.44
2018-06-12T20:05:44.141Z,94880.09
2018-06-12T20:08:13.362Z,94885.50
2018-06-12T20:10:42.729Z,94886.37
2018-06-12T20:13:11.943Z,94892.28
2018-06-12T20:15:41.081Z,94895.41
2018-06-12T20:18:10.257Z,94899.72
2018-06-12T20:20:39.594Z,94898.84
2018-06-12T20:23:08.773Z,94901.16
2018-06-12T20:25:38.123Z,94901.58
2018-06-12T20:28:07.292Z,94907.08
2018-06-12T20:30:36.514Z,94911.36
2018-06-12T20:33:05.784Z,94900.23
2018-06-12T20:35:34.950Z,94896.36
2018-06-12T20:38:04.138Z,94887.02
2018-06-12T20:40:33.302Z,94882.97
2018-06-12T20:43:02.481Z,94876.59
2018-06-12T20:45:31.657Z,94870.09
2018-06-12T20:48:00.873Z,94877.06
2018-06-12T20:50:30.012Z,94872.05
2018-06-12T20:52:59.396Z,94877.84
2018-06-12T20:55:28.614Z,94878.94
2018-06-12T20:57:57.728Z,94874.75
2018-06-12T21:00:26.869Z,94883.24
2018-06-12T21:02:55.872Z,94888.09
2018-06-12T21:05:24.989Z,94887.91
2018-06-12T21:07:54.133Z,94882.67
2018-06-12T21:10:23.258Z,94882.41
2018-06-12T21:12:52.169Z,94877.65
2018-06-12T21:15:21.333Z,94876.63
2018-06-12T21:17:50.528Z,94879.48
2018-06-12T21:20:19.708Z,94883.58
2018-06-12T21:22:48.894Z,94889.84
2018-06-12T21:25:18.096Z,94886.47
2018-06-12T21:27:47.272Z,94889.59
2018-06-12T21:30:16.453Z,94888.72
2018-06-12T21:32:45.636Z,94896.14
2018-06-12T21:35:14.864Z,94891.16
2018-06-12T21:37:44.237Z,94889.65
2018-06-12T21:40:13.370Z,94884.80
2018-06-12T21:42:42.538Z,94881.96
2018-06-12T21:45:11.721Z,94886.10
2018-06-12T21:47:40.928Z,94889.54
2018-06-12T21:50:10.517Z,94883.20
2018-06-12T21:52:39.673Z,94874.03
2018-06-12T21:55:08.845Z,94874.22
2018-06-12T21:57:38.050Z,94872.80
2018-06-12T22:00:08.305Z,94869.91
2018-06-12T22:02:37.473Z,94875.23
2018-06-12T22:05:06.655Z,94879.89
2018-06-12T22:07:35.867Z,94879.22
2018-06-12T22:10:05.185Z,94872.69
2018-06-12T22:12:34.387Z,94878.66
2018-06-12T22:15:03.571Z,94877.47
2018-06-12T22:17:32.738Z,94872.13
2018-06-12T22:20:01.889Z,94879.14
2018-06-12T22:22:31.026Z,94876.98
2018-06-12T22:25:00.177Z,94874.77
2018-06-12T22:27:29.325Z,94875.70
2018-06-12T22:29:58.474Z,94878.80
2018-06-12T22:32:27.622Z,94877.67
2018-06-12T22:34:56.770Z,94870.08
2018-06-12T22:37:25.906Z,94863.87
2018-06-12T22:39:54.893Z,94864.97
2018-06-12T22:42:24.018Z,94857.66
2018-06-12T22:44:53.138Z,94862.45
2018-06-12T22:47:22.299Z,94856.45
2018-06-12T22:49:51.197Z,94867.73
2018-06-12T22:52:20.344Z,94859.95
2018-06-12T22:54:49.481Z,94864.48
2018-06-12T22:57:18.619Z,94866.39
2018-06-12T22:59:47.753Z,94871.24
2018-06-12T23:02:16.877Z,94867.26
2018-06-12T23:04:46.258Z,94864.33
2018-06-12T23:07:15.395Z,94861.63
2018-06-12T23:09:44.654Z,94856.23
2018-06-12T23:12:13.962Z,94853.68
2018-06-12T23:14:43.101Z,94859.39
2018-06-12T23:17:12.226Z,94852.09
2018-06-12T23:19:58.533Z,94850.25
2018-06-12T23:22:27.660Z,94850.87
2018-06-12T23:24:56.802Z,94844.98
2018-06-12T23:27:25.957Z,94842.63
2018-06-12T23:29:55.085Z,94836.27
2018-06-12T23:32:24.222Z,94838.64
2018-06-12T23:34:53.350Z,94833.70
2018-06-12T23:37:22.502Z,94840.38
2018-06-12T23:39:51.660Z,94835.85
2018-06-12T23:42:20.780Z,94838.75
2018-06-12T23:44:49.925Z,94836.60
2018-06-12T23:47:19.089Z,94840.11
2018-06-12T23:49:48.221Z,94837.02
2018-06-12T23:52:17.613Z,94836.33
2018-06-12T23:54:46.792Z,94834.44
2018-06-12T23:57:15.974Z,94836.74
2018-06-12T23:59:45.169Z,94833.77
